createdAt,value
2018-05-08T00:02:00.216Z,15.83
2018-05-08T00:04:29.201Z,11.40
2018-05-08T00:06:58.021Z,13.30
2018-05-08T00:09:27.697Z,13.20
2018-05-08T00:11:58.223Z,12.43
2018-05-08T00:14:27.294Z,13.97
2018-05-08T00:16:56.709Z,13.90
2018-05-08T00:19:25.631Z,13.33
2018-05-08T00:21:54.556Z,15.10
2018-05-08T00:24:23.141Z,16.00
2018-05-08T00:26:52.672Z,19.00
2018-05-08T00:29:22.219Z,18.43
2018-05-08T00:31:50.998Z,19.23
2018-05-08T00:34:20.605Z,18.60
2018-05-08T00:36:49.450Z,20.23
2018-05-08T00:39:18.507Z,17.53
2018-05-08T00:41:48.760Z,18.20
2018-05-08T00:44:19.569Z,15.57
2018-05-08T00:46:48.599Z,15.57
2018-05-08T00:49:17.617Z,16.33
2018-05-08T00:51:46.925Z,17.20
2018-05-08T00:54:15.666Z,16.33
2018-05-08T00:56:44.957Z,16.67
2018-05-08T00:59:14.171Z,17.17
2018-05-08T01:01:43.608Z,15.87
2018-05-08T01:04:13.363Z,15.70
2018-05-08T01:06:42.656Z,14.83
2018-05-08T01:09:12.568Z,17.40
2018-05-08T01:11:42.515Z,16.67
2018-05-08T01:14:12.997Z,16.27
2018-05-08T01:16:42.235Z,15.70
2018-05-08T01:19:11.104Z,17.50
2018-05-08T01:21:40.839Z,16.73
2018-05-08T01:24:09.555Z,17.30
2018-05-08T01:26:38.147Z,17.70
2018-05-08T01:29:06.972Z,17.50
2018-05-08T01:31:36.801Z,18.77
2018-05-08T01:34:09.847Z,18.57
2018-05-08T01:36:39.632Z,17.57
2018-05-08T01:39:08.802Z,17.60
2018-05-08T01:41:37.677Z,18.77
2018-05-08T01:44:06.590Z,20.10
2018-05-08T01:46:35.111Z,17.67
2018-05-08T01:49:03.896Z,18.03
2018-05-08T01:51:33.620Z,17.47
2018-05-08T01:54:03.260Z,17.87
2018-05-08T01:56:32.526Z,16.90
2018-05-08T01:59:03.120Z,16.17
2018-05-08T02:01:32.545Z,15.03
2018-05-08T02:04:01.957Z,15.03
2018-05-08T02:06:30.916Z,15.80
2018-05-08T02:08:59.930Z,15.60
2018-05-08T02:11:28.995Z,16.50
2018-05-08T02:13:57.973Z,14.90
2018-05-08T02:16:27.129Z,17.60
2018-05-08T02:18:56.887Z,15.20
2018-05-08T02:21:25.401Z,15.33
2018-05-08T02:23:54.186Z,14.37
2018-05-08T02:26:23.254Z,14.50
2018-05-08T02:28:52.048Z,14.03
2018-05-08T02:31:21.679Z,14.57
2018-05-08T02:33:51.276Z,14.13
2018-05-08T02:36:20.272Z,14.57
2018-05-08T02:38:49.079Z,15.97
2018-05-08T02:41:17.836Z,15.50
2018-05-08T02:43:47.492Z,15.07
2018-05-08T02:46:16.132Z,16.17
2018-05-08T02:48:44.948Z,16.70
2018-05-08T02:51:15.303Z,16.87
2018-05-08T02:53:44.011Z,16.53
2018-05-08T02:56:14.144Z,16.07
2018-05-08T02:58:43.249Z,15.20
2018-05-08T03:01:12.870Z,17.50
2018-05-08T03:03:43.756Z,16.40
2018-05-08T03:06:12.969Z,16.17
2018-05-08T03:08:41.720Z,14.97
2018-05-08T03:11:10.789Z,15.60
2018-05-08T03:13:40.082Z,13.97
2018-05-08T03:16:09.027Z,14.97
2018-05-08T03:18:37.825Z,14.60
2018-05-08T03:21:06.927Z,14.40
2018-05-08T03:23:35.896Z,14.67
2018-05-08T03:26:04.434Z,14.43
2018-05-08T03:28:34.460Z,15.37
2018-05-08T03:31:04.202Z,15.57
2018-05-08T03:33:34.040Z,16.00
2018-05-08T03:36:03.598Z,16.73
2018-05-08T03:38:32.883Z,17.00
2018-05-08T03:41:02.449Z,16.83
2018-05-08T03:43:30.977Z,16.17
2018-05-08T03:46:00.665Z,15.77
2018-05-08T03:48:31.111Z,15.57
2018-05-08T03:51:01.401Z,14.97
2018-05-08T03:53:30.886Z,15.53
2018-05-08T03:56:00.524Z,15.40
2018-05-08T03:58:29.771Z,16.23
2018-05-08T04:01:16.223Z,15.50
2018-05-08T04:04:02.912Z,13.97
2018-05-08T04:07:07.951Z,14.40
2018-05-08T04:09:36.941Z,14.33
2018-05-08T04:12:06.325Z,14.47
2018-05-08T04:14:35.133Z,13.60
2018-05-08T04:17:04.008Z,15.73
2018-05-08T04:19:33.039Z,14.47
2018-05-08T04:22:01.825Z,16.53
2018-05-08T04:24:30.890Z,14.70
2018-05-08T04:27:00.618Z,15.40
2018-05-08T04:29:30.882Z,14.17
2018-05-08T04:32:00.935Z,15.37
2018-05-08T04:34:30.315Z,15.43
2018-05-08T04:36:59.927Z,13.47
2018-05-08T04:39:28.613Z,13.33
2018-05-08T04:41:58.541Z,13.33
2018-05-08T04:44:28.884Z,13.57
2018-05-08T04:46:57.747Z,13.50
2018-05-08T04:49:26.900Z,13.63
2018-05-08T04:51:56.249Z,13.13
2018-05-08T04:54:24.877Z,12.73
2018-05-08T04:56:54.113Z,13.70
2018-05-08T04:59:24.708Z,12.47
2018-05-08T05:01:54.912Z,12.73
2018-05-08T05:04:23.770Z,13.80
2018-05-08T05:06:54.103Z,12.90
2018-05-08T05:09:22.954Z,12.57
2018-05-08T05:11:51.675Z,12.70
2018-05-08T05:14:21.664Z,12.60
2018-05-08T05:16:51.208Z,12.60
2018-05-08T05:19:20.388Z,12.60
2018-05-08T05:21:50.063Z,12.67
2018-05-08T05:24:19.745Z,13.80
2018-05-08T05:26:49.720Z,13.77
2018-05-08T05:29:18.652Z,14.30
2018-05-08T05:31:47.661Z,13.73
2018-05-08T05:34:17.553Z,12.60
2018-05-08T05:36:47.155Z,11.87
2018-05-08T05:39:17.919Z,11.93
2018-05-08T05:41:46.893Z,10.77
2018-05-08T05:44:16.513Z,10.83
2018-05-08T05:46:45.519Z,10.37
2018-05-08T05:49:16.557Z,10.57
2018-05-08T05:51:46.862Z,10.20
2018-05-08T05:54:16.059Z,10.10
2018-05-08T05:56:45.828Z,10.50
2018-05-08T05:59:14.564Z,10.63
2018-05-08T06:01:43.304Z,10.93
2018-05-08T06:04:12.132Z,11.20
2018-05-08T06:06:40.901Z,13.27
2018-05-08T06:09:10.804Z,12.30
2018-05-08T06:11:40.464Z,13.87
2018-05-08T06:14:10.606Z,12.90
2018-05-08T06:16:41.592Z,11.63
2018-05-08T06:19:12.468Z,11.83
2018-05-08T06:21:47.716Z,11.87
2018-05-08T06:24:17.138Z,11.40
2018-05-08T06:26:46.078Z,12.17
2018-05-08T06:29:15.019Z,12.23
2018-05-08T06:31:43.935Z,11.97
2018-05-08T06:34:13.478Z,12.37
2018-05-08T06:36:43.665Z,13.00
2018-05-08T06:39:13.413Z,12.10
2018-05-08T06:41:43.529Z,12.27
2018-05-08T06:44:15.545Z,11.70
2018-05-08T06:46:44.252Z,12.57
2018-05-08T06:49:13.646Z,13.60
2018-05-08T06:51:42.560Z,12.57
2018-05-08T06:54:11.654Z,13.33
2018-05-08T06:56:40.706Z,13.37
2018-05-08T06:59:09.879Z,12.57
2018-05-08T07:01:38.454Z,11.90
2018-05-08T07:04:09.825Z,11.93
2018-05-08T07:06:39.747Z,12.00
2018-05-08T07:09:10.239Z,11.20
2018-05-08T07:11:39.342Z,12.13
2018-05-08T07:14:09.363Z,12.00
2018-05-08T07:16:38.196Z,11.90
2018-05-08T07:19:08.943Z,12.63
2018-05-08T07:21:37.875Z,11.93
2018-05-08T07:24:07.980Z,12.17
2018-05-08T07:26:38.099Z,13.00
2018-05-08T07:29:08.162Z,11.93
2018-05-08T07:31:38.555Z,11.90
2018-05-08T07:34:08.256Z,11.90
2018-05-08T07:36:37.170Z,12.17
2018-05-08T07:39:06.015Z,11.97
2018-05-08T07:41:35.725Z,12.00
2018-05-08T07:44:06.565Z,11.73
2018-05-08T07:46:35.245Z,11.70
2018-05-08T07:49:04.927Z,11.17
2018-05-08T07:51:33.789Z,10.63
2018-05-08T07:54:02.983Z,10.83
2018-05-08T07:56:33.217Z,9.70
2018-05-08T07:59:03.981Z,10.90
2018-05-08T08:34:08.883Z,11.23
2018-05-08T08:36:38.336Z,35.73
2018-05-08T08:39:07.831Z,9.43
2018-05-08T08:41:37.453Z,9.87
2018-05-08T08:44:07.380Z,9.37
2018-05-08T08:46:37.669Z,8.47
2018-05-08T08:49:07.551Z,7.90
2018-05-08T08:51:36.580Z,8.10
2018-05-08T08:54:06.710Z,7.93
2018-05-08T08:56:36.171Z,7.77
2018-05-08T08:59:05.220Z,7.90
2018-05-08T09:01:36.790Z,6.90
2018-05-08T09:04:05.873Z,6.43
2018-05-08T09:06:35.600Z,16.53
2018-05-08T09:09:05.178Z,13.40
2018-05-08T09:11:34.518Z,6.23
2018-05-08T09:14:03.416Z,5.57
2018-05-08T09:16:32.203Z,8.37
2018-05-08T09:19:01.132Z,6.13
2018-05-08T09:21:31.097Z,5.77
2018-05-08T09:24:02.077Z,5.50
2018-05-08T09:26:31.922Z,6.10
2018-05-08T09:29:02.064Z,5.77
2018-05-08T09:31:32.121Z,5.60
2018-05-08T09:34:01.149Z,5.53
2018-05-08T09:36:29.963Z,5.43
2018-05-08T09:38:58.788Z,6.17
2018-05-08T09:41:28.941Z,5.57
2018-05-08T09:43:57.567Z,5.87
2018-05-08T09:46:26.626Z,5.90
2018-05-08T09:48:56.423Z,5.43
2018-05-08T09:51:27.325Z,5.20
2018-05-08T09:53:57.525Z,5.97
2018-05-08T09:56:28.672Z,5.77
2018-05-08T09:58:57.550Z,5.93
2018-05-08T10:01:28.845Z,6.60
2018-05-08T10:03:58.233Z,5.30
2018-05-08T10:06:28.015Z,5.50
2018-05-08T10:08:57.606Z,5.77
2018-05-08T10:11:27.551Z,5.40
2018-05-08T10:14:01.655Z,5.30
2018-05-08T10:16:30.707Z,5.20
2018-05-08T10:19:07.759Z,6.27
2018-05-08T10:21:36.989Z,20.77
2018-05-08T10:24:07.098Z,5.97
2018-05-08T10:26:35.826Z,5.67
2018-05-08T10:29:04.749Z,6.07
2018-05-08T10:31:34.012Z,6.20
2018-05-08T10:34:03.451Z,5.47
2018-05-08T10:36:33.192Z,6.37
2018-05-08T10:39:03.526Z,6.00
2018-05-08T10:41:33.600Z,6.00
2018-05-08T10:44:02.896Z,5.80
2018-05-08T10:46:32.328Z,5.67
2018-05-08T10:49:01.465Z,6.30
2018-05-08T10:54:04.801Z,5.93
2018-05-08T10:56:34.859Z,6.07
2018-05-08T10:59:04.231Z,5.47
2018-05-08T11:01:34.484Z,5.93
2018-05-08T11:04:03.336Z,6.00
2018-05-08T11:06:32.108Z,5.47
2018-05-08T11:09:01.133Z,6.17
2018-05-08T11:11:30.885Z,5.70
2018-05-08T11:13:59.494Z,6.30
2018-05-08T11:16:28.199Z,6.37
2018-05-08T11:18:57.223Z,5.50
2018-05-08T11:21:26.546Z,5.50
2018-05-08T11:23:55.252Z,5.73
2018-05-08T11:26:24.547Z,5.77
2018-05-08T11:28:54.950Z,5.50
2018-05-08T11:31:23.945Z,5.40
2018-05-08T11:33:52.578Z,5.93
2018-05-08T11:36:21.100Z,5.73
2018-05-08T11:38:50.500Z,5.43
2018-05-08T11:41:19.194Z,5.27
2018-05-08T11:43:48.640Z,5.60
2018-05-08T11:46:18.794Z,5.43
2018-05-08T11:48:47.456Z,5.80
2018-05-08T11:51:16.381Z,5.47
2018-05-08T11:53:45.159Z,5.43
2018-05-08T11:56:14.677Z,5.30
2018-05-08T11:58:43.545Z,4.80
2018-05-08T12:01:12.636Z,5.50
2018-05-08T12:03:42.349Z,5.63
2018-05-08T12:06:11.040Z,5.23
2018-05-08T12:08:39.753Z,5.30
2018-05-08T12:11:08.727Z,24.93
2018-05-08T12:13:38.192Z,12.23
2018-05-08T12:16:06.921Z,10.80
2018-05-08T12:18:38.373Z,5.03
2018-05-08T12:21:07.343Z,5.03
2018-05-08T12:23:37.175Z,5.13
2018-05-08T12:26:07.780Z,4.83
2018-05-08T12:28:37.007Z,4.43
2018-05-08T12:31:05.623Z,4.67
2018-05-08T12:33:34.278Z,51.63
2018-05-08T12:36:02.963Z,5.50
2018-05-08T12:38:31.673Z,4.63
2018-05-08T12:41:01.935Z,5.33
2018-05-08T12:43:30.836Z,5.00
2018-05-08T12:46:01.920Z,5.93
2018-05-08T12:48:31.302Z,5.73
2018-05-08T12:50:59.931Z,5.53
2018-05-08T12:53:29.344Z,5.17
2018-05-08T12:55:59.839Z,6.13
2018-05-08T12:58:29.926Z,5.90
2018-05-08T13:00:59.299Z,5.90
2018-05-08T13:03:28.316Z,5.90
2018-05-08T13:05:57.683Z,5.87
2018-05-08T13:08:26.311Z,6.30
2018-05-08T13:10:56.682Z,6.03
2018-05-08T13:13:26.763Z,5.33
2018-05-08T13:15:55.466Z,6.77
2018-05-08T13:18:24.458Z,6.77
2018-05-08T13:20:54.866Z,6.87
2018-05-08T13:23:24.890Z,6.73
2018-05-08T13:25:54.511Z,6.77
2018-05-08T13:28:23.793Z,6.70
2018-05-08T13:30:52.405Z,7.03
2018-05-08T13:33:21.123Z,8.63
2018-05-08T13:35:50.429Z,8.97
2018-05-08T13:38:19.392Z,9.33
2018-05-08T13:40:48.079Z,9.20
2018-05-08T13:43:17.080Z,7.10
2018-05-08T13:45:48.750Z,7.53
2018-05-08T13:48:18.240Z,8.70
2018-05-08T13:50:47.667Z,8.27
2018-05-08T13:53:17.388Z,9.23
2018-05-08T13:55:47.331Z,20.70
2018-05-08T13:58:17.310Z,35.23
2018-05-08T14:00:45.912Z,8.97
2018-05-08T14:03:14.652Z,9.53
2018-05-08T14:05:44.060Z,8.90
2018-05-08T14:08:12.972Z,7.13
2018-05-08T14:10:42.410Z,7.83
2018-05-08T14:13:12.374Z,8.57
2018-05-08T14:15:42.134Z,9.07
2018-05-08T14:18:12.915Z,10.83
2018-05-08T14:20:42.689Z,14.90
2018-05-08T14:23:11.388Z,14.07
2018-05-08T14:25:40.377Z,12.40
2018-05-08T14:28:09.098Z,34.83
2018-05-08T14:30:38.666Z,9.87
2018-05-08T14:33:08.648Z,7.50
2018-05-08T14:35:39.835Z,10.10
2018-05-08T14:38:09.273Z,7.90
2018-05-08T14:40:38.094Z,10.73
2018-05-08T14:43:08.915Z,24.33
2018-05-08T14:45:42.671Z,11.73
2018-05-08T14:48:12.155Z,9.47
2018-05-08T14:50:41.687Z,9.87
2018-05-08T14:53:10.934Z,12.33
2018-05-08T14:55:40.093Z,11.70
2018-05-08T14:58:08.863Z,10.60
2018-05-08T15:00:38.221Z,8.57
2018-05-08T15:03:06.951Z,8.20
2018-05-08T15:05:35.744Z,9.07
2018-05-08T15:08:04.606Z,8.20
2018-05-08T15:10:33.482Z,7.50
2018-05-08T15:13:03.279Z,7.00
2018-05-08T15:15:33.535Z,8.00
2018-05-08T15:18:03.604Z,11.77
2018-05-08T15:20:32.446Z,8.20
2018-05-08T15:23:01.755Z,10.67
2018-05-08T15:25:30.603Z,13.90
2018-05-08T15:27:59.666Z,14.20
2018-05-08T15:30:28.427Z,12.57
2018-05-08T15:32:58.252Z,28.37
2018-05-08T15:35:26.984Z,18.93
2018-05-08T15:37:58.414Z,38.17
2018-05-08T15:40:27.706Z,15.57
2018-05-08T15:42:57.442Z,13.07
2018-05-08T15:45:26.059Z,12.10
2018-05-08T15:47:54.771Z,12.40
2018-05-08T15:50:23.756Z,16.03
2018-05-08T15:52:52.502Z,16.60
2018-05-08T15:55:21.380Z,12.77
2018-05-08T15:57:50.839Z,14.77
2018-05-08T16:00:19.456Z,18.27
2018-05-08T16:02:48.138Z,13.07
2018-05-08T16:05:17.676Z,10.57
2018-05-08T16:07:46.306Z,10.70
2018-05-08T16:10:14.921Z,9.77
2018-05-08T16:12:44.211Z,8.37
2018-05-08T16:15:13.412Z,9.93
2018-05-08T16:17:42.088Z,8.90
2018-05-08T16:20:10.599Z,8.33
2018-05-08T16:22:39.305Z,8.67
2018-05-08T16:25:08.967Z,6.10
2018-05-08T16:27:38.091Z,7.50
2018-05-08T16:30:07.964Z,8.23
2018-05-08T16:32:37.021Z,7.87
2018-05-08T16:35:07.805Z,8.33
2018-05-08T16:37:37.047Z,7.97
2018-05-08T16:40:06.276Z,8.20
2018-05-08T16:42:35.687Z,11.83
2018-05-08T16:45:06.044Z,17.13
2018-05-08T16:47:37.133Z,6.23
2018-05-08T16:50:07.968Z,6.63
2018-05-08T16:52:39.020Z,10.93
2018-05-08T16:55:08.443Z,9.60
2018-05-08T16:57:37.624Z,11.40
2018-05-08T17:00:06.543Z,10.83
2018-05-08T17:02:35.764Z,9.40
2018-05-08T17:05:07.852Z,9.20
2018-05-08T17:07:37.055Z,8.43
2018-05-08T17:10:06.248Z,7.67
2018-05-08T17:12:35.215Z,8.63
2018-05-08T17:15:04.025Z,7.50
2018-05-08T17:17:33.453Z,10.87
2018-05-08T17:20:02.101Z,8.67
2018-05-08T17:22:31.557Z,9.37
2018-05-08T17:25:00.218Z,7.63
2018-05-08T17:27:29.052Z,5.87
2018-05-08T17:29:57.758Z,6.50
2018-05-08T17:32:28.676Z,6.10
2018-05-08T17:34:59.191Z,7.50
2018-05-08T17:37:30.540Z,6.83
2018-05-08T17:39:59.928Z,7.57
2018-05-08T17:42:28.436Z,7.33
2018-05-08T17:44:57.309Z,6.30
2018-05-08T17:47:26.364Z,5.80
2018-05-08T17:49:55.048Z,5.60
2018-05-08T17:52:23.923Z,6.43
2018-05-08T17:54:52.658Z,5.33
2018-05-08T17:57:21.293Z,7.07
2018-05-08T17:59:50.008Z,6.27
2018-05-08T18:02:18.869Z,8.00
2018-05-08T18:04:48.567Z,6.63
2018-05-08T18:07:18.396Z,6.70
2018-05-08T18:09:48.550Z,6.47
2018-05-08T18:12:17.224Z,8.90
2018-05-08T18:14:45.822Z,6.77
2018-05-08T18:17:14.548Z,7.50
2018-05-08T18:19:43.922Z,7.80
2018-05-08T18:22:12.595Z,7.60
2018-05-08T18:24:41.987Z,8.17
2018-05-08T18:27:10.612Z,7.33
2018-05-08T18:29:40.462Z,6.63
2018-05-08T18:32:10.520Z,7.80
2018-05-08T18:34:39.796Z,7.00
2018-05-08T18:37:10.286Z,6.00
2018-05-08T18:39:39.205Z,6.20
2018-05-08T18:42:07.758Z,6.73
2018-05-08T18:44:36.454Z,6.27
2018-05-08T18:47:05.432Z,6.70
2018-05-08T18:49:34.288Z,5.97
2018-05-08T18:52:02.912Z,6.47
2018-05-08T18:54:33.379Z,6.47
2018-05-08T18:57:02.081Z,6.40
2018-05-08T18:59:30.701Z,6.93
2018-05-08T19:01:59.938Z,6.17
2018-05-08T19:04:28.997Z,6.67
2018-05-08T19:06:58.437Z,6.50
2018-05-08T19:09:27.167Z,8.07
2018-05-08T19:11:56.183Z,8.00
2018-05-08T19:14:25.068Z,8.70
2018-05-08T19:16:56.082Z,8.93
2018-05-08T19:19:31.305Z,7.53
2018-05-08T19:22:00.223Z,7.73
2018-05-08T19:24:34.589Z,7.63
2018-05-08T19:27:04.324Z,9.43
2018-05-08T19:29:39.461Z,9.00
2018-05-08T19:32:08.111Z,9.17
2018-05-08T19:34:42.426Z,11.83
2018-05-08T19:37:17.653Z,10.17
2018-05-08T19:39:46.947Z,12.33
2018-05-08T19:42:16.794Z,10.37
2018-05-08T19:44:46.022Z,10.10
2018-05-08T19:47:16.765Z,10.10
2018-05-08T19:49:45.759Z,10.13
2018-05-08T19:52:15.009Z,8.20
2018-05-08T19:54:44.960Z,10.47
2018-05-08T19:57:15.084Z,11.77
2018-05-08T19:59:44.787Z,11.30
2018-05-08T20:02:14.995Z,9.93
2018-05-08T20:04:45.334Z,11.33
2018-05-08T20:07:20.787Z,9.93
2018-05-08T20:09:50.179Z,9.37
2018-05-08T20:12:22.224Z,10.40
2018-05-08T20:14:51.795Z,11.27
2018-05-08T20:17:21.584Z,9.20
2018-05-08T20:19:50.416Z,9.03
2018-05-08T20:22:21.590Z,8.60
2018-05-08T20:24:51.234Z,8.27
2018-05-08T20:27:30.030Z,8.13
2018-05-08T20:30:02.194Z,9.00
2018-05-08T20:32:31.240Z,8.70
2018-05-08T20:35:10.110Z,9.13
2018-05-08T20:37:41.407Z,8.60
2018-05-08T20:40:12.536Z,8.83
2018-05-08T20:42:41.435Z,9.43
2018-05-08T20:45:11.448Z,9.77
2018-05-08T20:47:40.800Z,10.50
2018-05-08T20:50:11.560Z,9.50
2018-05-08T20:52:41.379Z,10.03
2018-05-08T20:55:10.685Z,9.23
2018-05-08T20:57:40.219Z,10.03
2018-05-08T21:00:10.294Z,11.80
2018-05-08T21:02:40.026Z,10.07
2018-05-08T21:05:08.792Z,7.87
2018-05-08T21:07:38.668Z,7.40
2018-05-08T21:10:08.402Z,7.73
2018-05-08T21:12:37.941Z,7.83
2018-05-08T21:15:07.894Z,10.10
2018-05-08T21:17:37.891Z,11.63
2018-05-08T21:20:06.919Z,16.20
2018-05-08T21:22:37.422Z,16.17
2018-05-08T21:25:08.673Z,17.87
2018-05-08T21:27:43.190Z,27.13
2018-05-08T21:30:17.925Z,32.63
2018-05-08T21:32:47.495Z,26.20
2018-05-08T21:35:17.891Z,20.90
2018-05-08T21:37:47.692Z,18.60
2018-05-08T21:40:18.371Z,16.30
2018-05-08T21:42:48.009Z,17.63
2018-05-08T21:45:18.460Z,20.00
2018-05-08T21:47:48.651Z,18.93
2018-05-08T21:50:17.793Z,20.00
2018-05-08T21:52:46.313Z,22.53
2018-05-08T21:55:15.136Z,20.17
2018-05-08T21:57:43.881Z,21.93
2018-05-08T22:00:13.452Z,23.20
2018-05-08T22:02:42.159Z,24.27
2018-05-08T22:05:11.016Z,26.77
2018-05-08T22:07:39.618Z,27.07
2018-05-08T22:12:43.350Z,28.63
2018-05-08T22:15:12.999Z,29.70
2018-05-08T22:17:41.736Z,28.20
2018-05-08T22:20:10.384Z,26.03
2018-05-08T22:22:39.779Z,26.57
2018-05-08T22:25:09.769Z,25.70
2018-05-08T22:27:39.103Z,26.20
2018-05-08T22:30:07.720Z,26.93
2018-05-08T22:32:36.420Z,27.37
2018-05-08T22:35:05.085Z,27.23
2018-05-08T22:37:34.776Z,25.93
2018-05-08T22:40:04.023Z,26.50
2018-05-08T22:42:33.201Z,26.83
2018-05-08T22:45:02.014Z,25.33
2018-05-08T22:47:30.524Z,25.03
2018-05-08T22:49:59.173Z,26.00
2018-05-08T22:52:28.441Z,26.67
2018-05-08T22:54:57.026Z,26.00
2018-05-08T22:57:25.589Z,23.47
2018-05-08T22:59:54.121Z,24.07
2018-05-08T23:02:23.461Z,22.37
2018-05-08T23:04:52.121Z,25.20
2018-05-08T23:07:20.804Z,26.43
2018-05-08T23:09:49.473Z,24.70
2018-05-08T23:12:18.715Z,23.87
2018-05-08T23:14:47.716Z,24.47
2018-05-08T23:17:16.380Z,24.13
2018-05-08T23:19:44.979Z,19.53
2018-05-08T23:22:13.633Z,16.47
2018-05-08T23:24:42.245Z,13.80
2018-05-08T23:27:10.720Z,12.17
2018-05-08T23:29:39.335Z,11.87
2018-05-08T23:32:07.966Z,11.03
2018-05-08T23:34:36.694Z,11.20
2018-05-08T23:37:05.433Z,10.07
2018-05-08T23:39:34.303Z,9.33
2018-05-08T23:42:02.963Z,8.23
2018-05-08T23:44:33.201Z,8.73
2018-05-08T23:47:02.809Z,8.93
2018-05-08T23:49:31.623Z,9.33
2018-05-08T23:52:01.162Z,8.93
2018-05-08T23:54:31.566Z,8.77
2018-05-08T23:57:00.067Z,12.33
2018-05-08T23:59:28.765Z,14.77
